sensor_id;sensor_type;location;lat;lon;timestamp;P1;durP1;ratioP1;P2;durP2;ratioP2
23228;SDS011;11783;50.350;6.576;2024-02-15T00:01:08;10.25;;;6.10;;
23228;SDS011;11783;50.350;6.576;2024-02-15T00:03:34;10.98;;;6.07;;
23228;SDS011;11783;50.350;6.576;2024-02-15T00:06:00;9.93;;;5.57;;
23228;SDS011;11783;50.350;6.576;2024-02-15T00:08:28;9.63;;;5.25;;
23228;SDS011;11783;50.350;6.576;2024-02-15T00:10:54;9.32;;;5.90;;
23228;SDS011;11783;50.350;6.576;2024-02-15T00:13:20;11.38;;;6.07;;
23228;SDS011;11783;50.350;6.576;2024-02-15T00:15:45;11.60;;;5.55;;
23228;SDS011;11783;50.350;6.576;2024-02-15T00:18:13;11.13;;;5.63;;
23228;SDS011;11783;50.350;6.576;2024-02-15T00:20:39;11.25;;;6.05;;
23228;SDS011;11783;50.350;6.576;2024-02-15T00:23:04;12.50;;;5.95;;
23228;SDS011;11783;50.350;6.576;2024-02-15T00:25:31;15.68;;;6.20;;
23228;SDS011;11783;50.350;6.576;2024-02-15T00:27:57;11.13;;;6.20;;
23228;SDS011;11783;50.350;6.576;2024-02-15T00:30:22;12.93;;;7.43;;
23228;SDS011;11783;50.350;6.576;2024-02-15T00:32:48;12.88;;;6.57;;
23228;SDS011;11783;50.350;6.576;2024-02-15T00:35:13;13.52;;;6.60;;
23228;SDS011;11783;50.350;6.576;2024-02-15T00:37:42;10.50;;;6.38;;
23228;SDS011;11783;50.350;6.576;2024-02-15T00:40:07;15.88;;;6.70;;
23228;SDS011;11783;50.350;6.576;2024-02-15T00:42:33;14.95;;;6.55;;
23228;SDS011;11783;50.350;6.576;2024-02-15T00:44:59;14.18;;;5.88;;
23228;SDS011;11783;50.350;6.576;2024-02-15T00:47:24;9.93;;;5.93;;
23228;SDS011;11783;50.350;6.576;2024-02-15T00:49:50;10.00;;;5.90;;
23228;SDS011;11783;50.350;6.576;2024-02-15T00:52:16;12.27;;;5.53;;
23228;SDS011;11783;50.350;6.576;2024-02-15T00:54:44;13.30;;;5.82;;
23228;SDS011;11783;50.350;6.576;2024-02-15T00:57:10;9.07;;;5.53;;
23228;SDS011;11783;50.350;6.576;2024-02-15T00:59:36;14.52;;;5.43;;
23228;SDS011;11783;50.350;6.576;2024-02-15T01:02:02;10.43;;;6.15;;
23228;SDS011;11783;50.350;6.576;2024-02-15T01:04:28;10.90;;;5.93;;
23228;SDS011;11783;50.350;6.576;2024-02-15T01:06:54;7.35;;;4.75;;
23228;SDS011;11783;50.350;6.576;2024-02-15T01:09:21;9.57;;;4.80;;
23228;SDS011;11783;50.350;6.576;2024-02-15T01:11:47;8.43;;;4.30;;
23228;SDS011;11783;50.350;6.576;2024-02-15T01:14:12;13.57;;;5.10;;
23228;SDS011;11783;50.350;6.576;2024-02-15T01:16:38;10.43;;;4.45;;
23228;SDS011;11783;50.350;6.576;2024-02-15T01:19:04;12.40;;;5.13;;
23228;SDS011;11783;50.350;6.576;2024-02-15T01:21:30;11.25;;;5.00;;
23228;SDS011;11783;50.350;6.576;2024-02-15T01:23:58;10.38;;;4.22;;
23228;SDS011;11783;50.350;6.576;2024-02-15T01:26:25;8.85;;;4.20;;
23228;SDS011;11783;50.350;6.576;2024-02-15T01:28:50;7.65;;;4.40;;
23228;SDS011;11783;50.350;6.576;2024-02-15T01:31:16;6.95;;;3.70;;
23228;SDS011;11783;50.350;6.576;2024-02-15T01:33:43;9.35;;;3.88;;
23228;SDS011;11783;50.350;6.576;2024-02-15T01:36:13;10.68;;;4.30;;
23228;SDS011;11783;50.350;6.576;2024-02-15T01:38:40;10.88;;;4.00;;
23228;SDS011;11783;50.350;6.576;2024-02-15T01:41:06;8.48;;;3.97;;
23228;SDS011;11783;50.350;6.576;2024-02-15T01:43:33;9.85;;;4.00;;
23228;SDS011;11783;50.350;6.576;2024-02-15T01:45:58;10.35;;;3.80;;
23228;SDS011;11783;50.350;6.576;2024-02-15T01:48:28;8.25;;;3.53;;
23228;SDS011;11783;50.350;6.576;2024-02-15T01:50:57;10.07;;;4.00;;
23228;SDS011;11783;50.350;6.576;2024-02-15T01:53:23;9.23;;;3.92;;
23228;SDS011;11783;50.350;6.576;2024-02-15T01:55:50;14.40;;;4.30;;
23228;SDS011;11783;50.350;6.576;2024-02-15T01:58:18;9.48;;;3.63;;
23228;SDS011;11783;50.350;6.576;2024-02-15T02:00:44;12.90;;;4.00;;
23228;SDS011;11783;50.350;6.576;2024-02-15T02:03:10;11.73;;;4.30;;
23228;SDS011;11783;50.350;6.576;2024-02-15T02:05:39;11.00;;;3.75;;
23228;SDS011;11783;50.350;6.576;2024-02-15T02:08:06;8.10;;;3.88;;
23228;SDS011;11783;50.350;6.576;2024-02-15T02:10:34;10.93;;;3.83;;
23228;SDS011;11783;50.350;6.576;2024-02-15T02:13:03;11.10;;;3.92;;
23228;SDS011;11783;50.350;6.576;2024-02-15T02:15:29;11.20;;;3.83;;
23228;SDS011;11783;50.350;6.576;2024-02-15T02:17:56;11.02;;;4.22;;
23228;SDS011;11783;50.350;6.576;2024-02-15T02:20:24;12.30;;;3.90;;
23228;SDS011;11783;50.350;6.576;2024-02-15T02:22:50;7.75;;;4.20;;
23228;SDS011;11783;50.350;6.576;2024-02-15T02:25:20;12.77;;;4.80;;
23228;SDS011;11783;50.350;6.576;2024-02-15T02:27:46;10.02;;;4.20;;
23228;SDS011;11783;50.350;6.576;2024-02-15T02:30:13;14.40;;;4.72;;
23228;SDS011;11783;50.350;6.576;2024-02-15T02:32:43;10.13;;;4.53;;
23228;SDS011;11783;50.350;6.576;2024-02-15T02:35:09;16.10;;;4.50;;
23228;SDS011;11783;50.350;6.576;2024-02-15T02:37:40;13.55;;;5.00;;
23228;SDS011;11783;50.350;6.576;2024-02-15T02:40:05;11.88;;;4.50;;
23228;SDS011;11783;50.350;6.576;2024-02-15T02:42:56;14.02;;;4.85;;
23228;SDS011;11783;50.350;6.576;2024-02-15T02:45:21;13.55;;;4.80;;
23228;SDS011;11783;50.350;6.576;2024-02-15T02:47:50;11.90;;;4.68;;
23228;SDS011;11783;50.350;6.576;2024-02-15T02:50:20;15.00;;;4.57;;
23228;SDS011;11783;50.350;6.576;2024-02-15T02:52:46;16.73;;;4.90;;
23228;SDS011;11783;50.350;6.576;2024-02-15T02:55:13;11.35;;;4.82;;
23228;SDS011;11783;50.350;6.576;2024-02-15T02:57:38;15.70;;;6.28;;
23228;SDS011;11783;50.350;6.576;2024-02-15T03:00:05;17.27;;;5.55;;
23228;SDS011;11783;50.350;6.576;2024-02-15T03:02:37;17.80;;;5.43;;
23228;SDS011;11783;50.350;6.576;2024-02-15T03:05:06;12.13;;;5.35;;
23228;SDS011;11783;50.350;6.576;2024-02-15T03:07:33;15.10;;;4.93;;
23228;SDS011;11783;50.350;6.576;2024-02-15T03:10:00;14.25;;;5.53;;
23228;SDS011;11783;50.350;6.576;2024-02-15T03:12:26;19.20;;;5.63;;
23228;SDS011;11783;50.350;6.576;2024-02-15T03:14:51;17.13;;;6.70;;
23228;SDS011;11783;50.350;6.576;2024-02-15T03:17:17;15.48;;;5.50;;
23228;SDS011;11783;50.350;6.576;2024-02-15T03:19:43;16.10;;;5.00;;
23228;SDS011;11783;50.350;6.576;2024-02-15T03:22:08;12.68;;;5.60;;
23228;SDS011;11783;50.350;6.576;2024-02-15T03:24:33;13.52;;;4.72;;
23228;SDS011;11783;50.350;6.576;2024-02-15T03:26:59;15.80;;;5.03;;
23228;SDS011;11783;50.350;6.576;2024-02-15T03:29:25;12.27;;;4.80;;
23228;SDS011;11783;50.350;6.576;2024-02-15T03:31:50;16.48;;;5.60;;
23228;SDS011;11783;50.350;6.576;2024-02-15T03:34:18;15.02;;;4.47;;
23228;SDS011;11783;50.350;6.576;2024-02-15T03:36:46;12.85;;;4.28;;
23228;SDS011;11783;50.350;6.576;2024-02-15T03:39:14;13.80;;;4.70;;
23228;SDS011;11783;50.350;6.576;2024-02-15T03:41:39;11.68;;;4.63;;
23228;SDS011;11783;50.350;6.576;2024-02-15T03:44:05;13.93;;;4.28;;
23228;SDS011;11783;50.350;6.576;2024-02-15T03:46:31;10.68;;;3.92;;
23228;SDS011;11783;50.350;6.576;2024-02-15T03:48:57;14.57;;;4.18;;
23228;SDS011;11783;50.350;6.576;2024-02-15T03:51:23;17.88;;;3.90;;
23228;SDS011;11783;50.350;6.576;2024-02-15T03:53:50;16.60;;;4.80;;
23228;SDS011;11783;50.350;6.576;2024-02-15T03:56:17;11.77;;;4.10;;
23228;SDS011;11783;50.350;6.576;2024-02-15T03:58:43;11.13;;;4.10;;
23228;SDS011;11783;50.350;6.576;2024-02-15T04:01:08;10.93;;;4.53;;
23228;SDS011;11783;50.350;6.576;2024-02-15T04:03:35;11.68;;;4.00;;
23228;SDS011;11783;50.350;6.576;2024-02-15T04:06:01;14.40;;;4.20;;
23228;SDS011;11783;50.350;6.576;2024-02-15T04:08:27;10.57;;;3.92;;
23228;SDS011;11783;50.350;6.576;2024-02-15T04:10:52;16.77;;;4.43;;
23228;SDS011;11783;50.350;6.576;2024-02-15T04:13:18;10.00;;;3.78;;
23228;SDS011;11783;50.350;6.576;2024-02-15T04:15:44;13.35;;;3.70;;
23228;SDS011;11783;50.350;6.576;2024-02-15T04:18:12;10.93;;;3.60;;
23228;SDS011;11783;50.350;6.576;2024-02-15T04:20:39;10.65;;;3.90;;
23228;SDS011;11783;50.350;6.576;2024-02-15T04:23:09;11.60;;;4.00;;
23228;SDS011;11783;50.350;6.576;2024-02-15T04:25:35;12.88;;;3.60;;
23228;SDS011;11783;50.350;6.576;2024-02-15T04:28:01;13.07;;;4.18;;
23228;SDS011;11783;50.350;6.576;2024-02-15T04:30:29;12.07;;;4.60;;
23228;SDS011;11783;50.350;6.576;2024-02-15T04:32:55;13.85;;;4.57;;
23228;SDS011;11783;50.350;6.576;2024-02-15T04:35:20;12.30;;;4.18;;
23228;SDS011;11783;50.350;6.576;2024-02-15T04:37:46;14.65;;;4.28;;
23228;SDS011;11783;50.350;6.576;2024-02-15T04:40:14;11.95;;;4.05;;
23228;SDS011;11783;50.350;6.576;2024-02-15T04:42:40;11.88;;;5.30;;
23228;SDS011;11783;50.350;6.576;2024-02-15T04:45:07;12.32;;;4.80;;
23228;SDS011;11783;50.350;6.576;2024-02-15T04:47:33;12.98;;;5.00;;
23228;SDS011;11783;50.350;6.576;2024-02-15T04:49:59;14.80;;;5.75;;
23228;SDS011;11783;50.350;6.576;2024-02-15T04:52:25;12.90;;;5.47;;
23228;SDS011;11783;50.350;6.576;2024-02-15T04:54:51;14.23;;;5.10;;
23228;SDS011;11783;50.350;6.576;2024-02-15T04:57:19;11.65;;;5.22;;
23228;SDS011;11783;50.350;6.576;2024-02-15T04:59:44;13.85;;;5.57;;
23228;SDS011;11783;50.350;6.576;2024-02-15T05:02:12;11.40;;;5.35;;
23228;SDS011;11783;50.350;6.576;2024-02-15T05:04:38;12.88;;;5.25;;
23228;SDS011;11783;50.350;6.576;2024-02-15T05:07:03;9.63;;;5.40;;
23228;SDS011;11783;50.350;6.576;2024-02-15T05:09:29;12.93;;;6.43;;
23228;SDS011;11783;50.350;6.576;2024-02-15T05:11:56;12.73;;;6.95;;
23228;SDS011;11783;50.350;6.576;2024-02-15T05:14:22;13.25;;;6.57;;
23228;SDS011;11783;50.350;6.576;2024-02-15T05:16:49;13.65;;;6.20;;
23228;SDS011;11783;50.350;6.576;2024-02-15T05:19:15;16.05;;;6.22;;
23228;SDS011;11783;50.350;6.576;2024-02-15T05:21:41;16.27;;;6.00;;
23228;SDS011;11783;50.350;6.576;2024-02-15T05:24:10;13.73;;;7.18;;
23228;SDS011;11783;50.350;6.576;2024-02-15T05:26:40;13.10;;;6.85;;
23228;SDS011;11783;50.350;6.576;2024-02-15T05:29:08;15.43;;;7.47;;
23228;SDS011;11783;50.350;6.576;2024-02-15T05:31:35;14.00;;;6.75;;
23228;SDS011;11783;50.350;6.576;2024-02-15T05:34:03;13.60;;;6.80;;
23228;SDS011;11783;50.350;6.576;2024-02-15T05:36:32;14.52;;;7.15;;
23228;SDS011;11783;50.350;6.576;2024-02-15T05:38:58;12.88;;;6.50;;
23228;SDS011;11783;50.350;6.576;2024-02-15T05:41:25;16.10;;;6.82;;
23228;SDS011;11783;50.350;6.576;2024-02-15T05:43:50;14.23;;;6.93;;
23228;SDS011;11783;50.350;6.576;2024-02-15T05:46:19;14.10;;;6.88;;
23228;SDS011;11783;50.350;6.576;2024-02-15T05:48:48;11.93;;;6.13;;
23228;SDS011;11783;50.350;6.576;2024-02-15T05:51:14;17.67;;;6.13;;
23228;SDS011;11783;50.350;6.576;2024-02-15T05:53:39;15.45;;;7.15;;
23228;SDS011;11783;50.350;6.576;2024-02-15T05:56:06;14.07;;;6.78;;
23228;SDS011;11783;50.350;6.576;2024-02-15T05:58:34;14.85;;;6.15;;
23228;SDS011;11783;50.350;6.576;2024-02-15T06:01:00;13.75;;;6.00;;
23228;SDS011;11783;50.350;6.576;2024-02-15T06:03:30;15.55;;;6.35;;
23228;SDS011;11783;50.350;6.576;2024-02-15T06:06:01;11.23;;;6.07;;
23228;SDS011;11783;50.350;6.576;2024-02-15T06:08:30;13.52;;;6.07;;
23228;SDS011;11783;50.350;6.576;2024-02-15T06:10:55;11.70;;;5.88;;
23228;SDS011;11783;50.350;6.576;2024-02-15T06:13:21;15.68;;;6.65;;
23228;SDS011;11783;50.350;6.576;2024-02-15T06:15:47;14.00;;;5.68;;
23228;SDS011;11783;50.350;6.576;2024-02-15T06:18:18;14.77;;;5.53;;
23228;SDS011;11783;50.350;6.576;2024-02-15T06:20:46;10.13;;;5.32;;
23228;SDS011;11783;50.350;6.576;2024-02-15T06:23:16;10.63;;;5.53;;
23228;SDS011;11783;50.350;6.576;2024-02-15T06:25:42;9.98;;;5.30;;
23228;SDS011;11783;50.350;6.576;2024-02-15T06:28:08;12.23;;;6.15;;
23228;SDS011;11783;50.350;6.576;2024-02-15T06:30:52;11.70;;;5.53;;
23228;SDS011;11783;50.350;6.576;2024-02-15T06:33:37;15.30;;;5.88;;
23228;SDS011;11783;50.350;6.576;2024-02-15T06:36:21;13.35;;;5.53;;
23228;SDS011;11783;50.350;6.576;2024-02-15T06:39:05;13.05;;;5.25;;
23228;SDS011;11783;50.350;6.576;2024-02-15T06:42:06;12.27;;;5.95;;
23228;SDS011;11783;50.350;6.576;2024-02-15T06:44:32;13.82;;;5.22;;
23228;SDS011;11783;50.350;6.576;2024-02-15T06:46:57;12.13;;;5.05;;
23228;SDS011;11783;50.350;6.576;2024-02-15T06:49:23;11.60;;;5.30;;
23228;SDS011;11783;50.350;6.576;2024-02-15T06:51:51;12.23;;;5.82;;
23228;SDS011;11783;50.350;6.576;2024-02-15T06:54:17;11.65;;;5.95;;
23228;SDS011;11783;50.350;6.576;2024-02-15T06:56:43;12.80;;;5.50;;
23228;SDS011;11783;50.350;6.576;2024-02-15T06:59:11;10.95;;;5.57;;
23228;SDS011;11783;50.350;6.576;2024-02-15T07:01:40;15.05;;;5.47;;
23228;SDS011;11783;50.350;6.576;2024-02-15T07:04:07;12.52;;;5.63;;
23228;SDS011;11783;50.350;6.576;2024-02-15T07:06:33;15.50;;;5.57;;
23228;SDS011;11783;50.350;6.576;2024-02-15T07:09:00;13.50;;;5.93;;
23228;SDS011;11783;50.350;6.576;2024-02-15T07:11:25;13.57;;;5.75;;
23228;SDS011;11783;50.350;6.576;2024-02-15T07:13:50;13.73;;;6.05;;
23228;SDS011;11783;50.350;6.576;2024-02-15T07:16:19;12.15;;;4.75;;
23228;SDS011;11783;50.350;6.576;2024-02-15T07:18:45;13.98;;;4.88;;
23228;SDS011;11783;50.350;6.576;2024-02-15T07:21:11;10.05;;;4.78;;
23228;SDS011;11783;50.350;6.576;2024-02-15T07:23:39;13.88;;;4.68;;
23228;SDS011;11783;50.350;6.576;2024-02-15T07:26:07;13.63;;;6.65;;
23228;SDS011;11783;50.350;6.576;2024-02-15T07:28:33;13.32;;;6.40;;
23228;SDS011;11783;50.350;6.576;2024-02-15T07:30:58;13.20;;;5.90;;
23228;SDS011;11783;50.350;6.576;2024-02-15T07:33:25;13.73;;;6.07;;
23228;SDS011;11783;50.350;6.576;2024-02-15T07:35:50;15.88;;;6.00;;
23228;SDS011;11783;50.350;6.576;2024-02-15T07:38:16;14.10;;;5.57;;
23228;SDS011;11783;50.350;6.576;2024-02-15T07:40:42;13.40;;;6.63;;
23228;SDS011;11783;50.350;6.576;2024-02-15T07:43:08;10.00;;;5.80;;
23228;SDS011;11783;50.350;6.576;2024-02-15T07:45:34;13.32;;;5.60;;
23228;SDS011;11783;50.350;6.576;2024-02-15T07:48:00;13.82;;;5.38;;
23228;SDS011;11783;50.350;6.576;2024-02-15T07:50:26;14.32;;;5.78;;
23228;SDS011;11783;50.350;6.576;2024-02-15T07:52:51;11.80;;;5.55;;
23228;SDS011;11783;50.350;6.576;2024-02-15T07:55:17;11.27;;;4.80;;
23228;SDS011;11783;50.350;6.576;2024-02-15T07:57:42;12.70;;;4.82;;
23228;SDS011;11783;50.350;6.576;2024-02-15T08:00:08;10.95;;;4.28;;
23228;SDS011;11783;50.350;6.576;2024-02-15T08:02:36;10.77;;;4.80;;
23228;SDS011;11783;50.350;6.576;2024-02-15T08:05:05;12.20;;;5.47;;
23228;SDS011;11783;50.350;6.576;2024-02-15T08:07:35;13.52;;;5.07;;
23228;SDS011;11783;50.350;6.576;2024-02-15T08:10:09;8.75;;;4.82;;
23228;SDS011;11783;50.350;6.576;2024-02-15T08:12:41;14.10;;;5.10;;
23228;SDS011;11783;50.350;6.576;2024-02-15T08:15:07;13.82;;;5.15;;
23228;SDS011;11783;50.350;6.576;2024-02-15T08:17:37;17.23;;;4.57;;
23228;SDS011;11783;50.350;6.576;2024-02-15T08:20:04;9.50;;;3.80;;
23228;SDS011;11783;50.350;6.576;2024-02-15T08:22:32;8.73;;;3.58;;
23228;SDS011;11783;50.350;6.576;2024-02-15T08:24:58;11.20;;;3.45;;
23228;SDS011;11783;50.350;6.576;2024-02-15T08:27:24;9.50;;;3.13;;
23228;SDS011;11783;50.350;6.576;2024-02-15T08:29:50;7.95;;;2.97;;
23228;SDS011;11783;50.350;6.576;2024-02-15T08:32:16;7.88;;;3.20;;
23228;SDS011;11783;50.350;6.576;2024-02-15T08:34:41;6.40;;;2.58;;
23228;SDS011;11783;50.350;6.576;2024-02-15T08:37:07;9.85;;;2.78;;
23228;SDS011;11783;50.350;6.576;2024-02-15T08:39:32;11.13;;;3.05;;
23228;SDS011;11783;50.350;6.576;2024-02-15T08:41:57;9.13;;;2.50;;
23228;SDS011;11783;50.350;6.576;2024-02-15T08:44:24;9.05;;;1.95;;
23228;SDS011;11783;50.350;6.576;2024-02-15T08:46:50;4.95;;;2.03;;
23228;SDS011;11783;50.350;6.576;2024-02-15T08:49:16;7.30;;;2.25;;
23228;SDS011;11783;50.350;6.576;2024-02-15T08:51:41;5.22;;;1.92;;
23228;SDS011;11783;50.350;6.576;2024-02-15T08:54:06;6.53;;;1.88;;
23228;SDS011;11783;50.350;6.576;2024-02-15T08:56:33;6.47;;;2.10;;
23228;SDS011;11783;50.350;6.576;2024-02-15T08:59:00;6.57;;;1.50;;
23228;SDS011;11783;50.350;6.576;2024-02-15T09:01:26;9.52;;;1.90;;
23228;SDS011;11783;50.350;6.576;2024-02-15T09:03:51;6.20;;;1.75;;
23228;SDS011;11783;50.350;6.576;2024-02-15T09:06:16;7.60;;;2.10;;
23228;SDS011;11783;50.350;6.576;2024-02-15T09:08:42;8.00;;;1.80;;
23228;SDS011;11783;50.350;6.576;2024-02-15T09:11:07;8.57;;;1.85;;
23228;SDS011;11783;50.350;6.576;2024-02-15T09:13:37;9.85;;;1.70;;
23228;SDS011;11783;50.350;6.576;2024-02-15T09:16:02;4.88;;;1.58;;
23228;SDS011;11783;50.350;6.576;2024-02-15T09:18:28;5.55;;;1.90;;
23228;SDS011;11783;50.350;6.576;2024-02-15T09:20:53;9.40;;;1.88;;
23228;SDS011;11783;50.350;6.576;2024-02-15T09:23:21;6.88;;;1.75;;
23228;SDS011;11783;50.350;6.576;2024-02-15T09:25:48;6.70;;;1.90;;
23228;SDS011;11783;50.350;6.576;2024-02-15T09:28:16;7.70;;;1.80;;
23228;SDS011;11783;50.350;6.576;2024-02-15T09:30:46;7.13;;;1.50;;
23228;SDS011;11783;50.350;6.576;2024-02-15T09:33:13;8.38;;;1.60;;
23228;SDS011;11783;50.350;6.576;2024-02-15T09:35:38;4.82;;;1.70;;
23228;SDS011;11783;50.350;6.576;2024-02-15T09:38:03;6.72;;;1.92;;
23228;SDS011;11783;50.350;6.576;2024-02-15T09:40:31;4.85;;;1.90;;
23228;SDS011;11783;50.350;6.576;2024-02-15T09:42:56;5.35;;;1.70;;
23228;SDS011;11783;50.350;6.576;2024-02-15T09:45:22;5.13;;;1.95;;
23228;SDS011;11783;50.350;6.576;2024-02-15T09:47:49;6.63;;;1.88;;
23228;SDS011;11783;50.350;6.576;2024-02-15T09:50:16;7.22;;;1.75;;
23228;SDS011;11783;50.350;6.576;2024-02-15T09:55:14;5.65;;;1.65;;
23228;SDS011;11783;50.350;6.576;2024-02-15T09:57:41;6.95;;;1.50;;
23228;SDS011;11783;50.350;6.576;2024-02-15T10:00:09;6.88;;;1.92;;
23228;SDS011;11783;50.350;6.576;2024-02-15T10:02:39;3.65;;;1.20;;
23228;SDS011;11783;50.350;6.576;2024-02-15T10:05:05;5.22;;;1.63;;
23228;SDS011;11783;50.350;6.576;2024-02-15T10:07:36;9.30;;;1.65;;
23228;SDS011;11783;50.350;6.576;2024-02-15T10:12:41;4.55;;;1.20;;
23228;SDS011;11783;50.350;6.576;2024-02-15T10:15:08;8.15;;;1.33;;
23228;SDS011;11783;50.350;6.576;2024-02-15T10:17:35;3.17;;;1.42;;
23228;SDS011;11783;50.350;6.576;2024-02-15T10:20:04;4.55;;;1.40;;
23228;SDS011;11783;50.350;6.576;2024-02-15T10:22:31;4.00;;;1.00;;
23228;SDS011;11783;50.350;6.576;2024-02-15T10:25:12;4.10;;;0.93;;
23228;SDS011;11783;50.350;6.576;2024-02-15T10:27:42;6.68;;;1.50;;
23228;SDS011;11783;50.350;6.576;2024-02-15T10:30:17;2.50;;;0.90;;
23228;SDS011;11783;50.350;6.576;2024-02-15T10:32:44;3.65;;;1.10;;
23228;SDS011;11783;50.350;6.576;2024-02-15T10:35:10;7.20;;;1.40;;
23228;SDS011;11783;50.350;6.576;2024-02-15T10:37:40;6.15;;;1.42;;
23228;SDS011;11783;50.350;6.576;2024-02-15T10:40:07;5.03;;;1.35;;
23228;SDS011;11783;50.350;6.576;2024-02-15T10:42:33;5.95;;;1.30;;
23228;SDS011;11783;50.350;6.576;2024-02-15T10:45:01;4.78;;;1.85;;
23228;SDS011;11783;50.350;6.576;2024-02-15T10:47:33;5.43;;;1.38;;
23228;SDS011;11783;50.350;6.576;2024-02-15T10:50:01;4.28;;;1.27;;
23228;SDS011;11783;50.350;6.576;2024-02-15T10:52:28;5.53;;;1.55;;
23228;SDS011;11783;50.350;6.576;2024-02-15T10:55:05;5.20;;;1.48;;
23228;SDS011;11783;50.350;6.576;2024-02-15T10:57:39;4.10;;;1.30;;
23228;SDS011;11783;50.350;6.576;2024-02-15T11:03:07;6.78;;;1.30;;
23228;SDS011;11783;50.350;6.576;2024-02-15T11:05:33;5.53;;;1.25;;
23228;SDS011;11783;50.350;6.576;2024-02-15T11:08:10;6.38;;;1.45;;
23228;SDS011;11783;50.350;6.576;2024-02-15T11:10:36;4.80;;;1.35;;
23228;SDS011;11783;50.350;6.576;2024-02-15T11:13:03;5.85;;;1.67;;
23228;SDS011;11783;50.350;6.576;2024-02-15T11:15:47;4.03;;;1.13;;
23228;SDS011;11783;50.350;6.576;2024-02-15T11:21:16;6.50;;;1.42;;
23228;SDS011;11783;50.350;6.576;2024-02-15T11:27:00;5.43;;;1.10;;
23228;SDS011;11783;50.350;6.576;2024-02-15T11:35:11;4.32;;;1.08;;
23228;SDS011;11783;50.350;6.576;2024-02-15T11:40:19;7.13;;;1.30;;
23228;SDS011;11783;50.350;6.576;2024-02-15T11:42:48;6.60;;;1.38;;
23228;SDS011;11783;50.350;6.576;2024-02-15T11:45:18;8.63;;;1.50;;
23228;SDS011;11783;50.350;6.576;2024-02-15T11:47:43;5.50;;;1.10;;
23228;SDS011;11783;50.350;6.576;2024-02-15T11:50:14;3.90;;;1.20;;
23228;SDS011;11783;50.350;6.576;2024-02-15T11:52:42;4.13;;;1.00;;
23228;SDS011;11783;50.350;6.576;2024-02-15T11:57:40;6.53;;;1.50;;
23228;SDS011;11783;50.350;6.576;2024-02-15T12:00:25;4.97;;;1.30;;
23228;SDS011;11783;50.350;6.576;2024-02-15T12:03:20;5.00;;;1.50;;
23228;SDS011;11783;50.350;6.576;2024-02-15T12:06:05;3.85;;;1.20;;
23228;SDS011;11783;50.350;6.576;2024-02-15T12:08:50;5.90;;;1.42;;
23228;SDS011;11783;50.350;6.576;2024-02-15T12:11:36;5.25;;;1.40;;
23228;SDS011;11783;50.350;6.576;2024-02-15T12:14:20;5.00;;;1.33;;
23228;SDS011;11783;50.350;6.576;2024-02-15T12:17:08;4.63;;;1.60;;
23228;SDS011;11783;50.350;6.576;2024-02-15T12:19:54;3.63;;;1.30;;
23228;SDS011;11783;50.350;6.576;2024-02-15T12:22:27;4.18;;;1.13;;
23228;SDS011;11783;50.350;6.576;2024-02-15T12:24:59;3.40;;;1.30;;
23228;SDS011;11783;50.350;6.576;2024-02-15T12:27:26;4.33;;;1.50;;
23228;SDS011;11783;50.350;6.576;2024-02-15T12:29:58;4.80;;;1.40;;
23228;SDS011;11783;50.350;6.576;2024-02-15T12:32:25;5.57;;;1.60;;
23228;SDS011;11783;50.350;6.576;2024-02-15T12:34:52;5.28;;;1.40;;
23228;SDS011;11783;50.350;6.576;2024-02-15T12:37:21;6.53;;;1.63;;
23228;SDS011;11783;50.350;6.576;2024-02-15T12:39:47;6.47;;;1.80;;
23228;SDS011;11783;50.350;6.576;2024-02-15T12:42:14;5.70;;;1.67;;
23228;SDS011;11783;50.350;6.576;2024-02-15T12:44:43;6.85;;;1.48;;
23228;SDS011;11783;50.350;6.576;2024-02-15T12:47:18;4.63;;;1.23;;
23228;SDS011;11783;50.350;6.576;2024-02-15T12:49:47;5.20;;;1.50;;
23228;SDS011;11783;50.350;6.576;2024-02-15T12:55:08;5.07;;;1.30;;
23228;SDS011;11783;50.350;6.576;2024-02-15T12:57:43;3.60;;;1.38;;
23228;SDS011;11783;50.350;6.576;2024-02-15T13:00:14;6.65;;;1.60;;
23228;SDS011;11783;50.350;6.576;2024-02-15T13:02:44;5.25;;;1.80;;
23228;SDS011;11783;50.350;6.576;2024-02-15T13:05:14;3.00;;;1.10;;
23228;SDS011;11783;50.350;6.576;2024-02-15T13:07:40;5.25;;;1.67;;
23228;SDS011;11783;50.350;6.576;2024-02-15T13:10:06;5.10;;;1.50;;
23228;SDS011;11783;50.350;6.576;2024-02-15T13:12:35;5.90;;;1.50;;
23228;SDS011;11783;50.350;6.576;2024-02-15T13:15:04;6.18;;;1.50;;
23228;SDS011;11783;50.350;6.576;2024-02-15T13:17:37;6.43;;;1.60;;
23228;SDS011;11783;50.350;6.576;2024-02-15T13:20:03;5.07;;;1.45;;
23228;SDS011;11783;50.350;6.576;2024-02-15T13:22:30;7.55;;;1.98;;
23228;SDS011;11783;50.350;6.576;2024-02-15T13:24:57;6.47;;;1.65;;
23228;SDS011;11783;50.350;6.576;2024-02-15T13:27:23;6.05;;;1.90;;
23228;SDS011;11783;50.350;6.576;2024-02-15T13:29:49;6.68;;;1.80;;
23228;SDS011;11783;50.350;6.576;2024-02-15T13:32:18;5.75;;;1.50;;
23228;SDS011;11783;50.350;6.576;2024-02-15T13:34:46;9.10;;;1.70;;
23228;SDS011;11783;50.350;6.576;2024-02-15T13:37:18;3.13;;;1.40;;
23228;SDS011;11783;50.350;6.576;2024-02-15T13:39:46;4.68;;;1.30;;
23228;SDS011;11783;50.350;6.576;2024-02-15T13:42:15;5.70;;;1.45;;
23228;SDS011;11783;50.350;6.576;2024-02-15T13:44:44;5.32;;;1.40;;
23228;SDS011;11783;50.350;6.576;2024-02-15T13:47:11;4.60;;;1.20;;
23228;SDS011;11783;50.350;6.576;2024-02-15T13:49:37;7.10;;;1.20;;
23228;SDS011;11783;50.350;6.576;2024-02-15T13:52:04;5.03;;;1.63;;
23228;SDS011;11783;50.350;6.576;2024-02-15T13:54:31;5.32;;;1.38;;
23228;SDS011;11783;50.350;6.576;2024-02-15T13:56:58;5.25;;;1.50;;
23228;SDS011;11783;50.350;6.576;2024-02-15T13:59:28;6.63;;;1.52;;
23228;SDS011;11783;50.350;6.576;2024-02-15T14:01:54;4.75;;;1.40;;
23228;SDS011;11783;50.350;6.576;2024-02-15T14:04:20;4.97;;;1.67;;
23228;SDS011;11783;50.350;6.576;2024-02-15T14:06:46;8.23;;;1.40;;
23228;SDS011;11783;50.350;6.576;2024-02-15T14:09:12;6.88;;;1.55;;
23228;SDS011;11783;50.350;6.576;2024-02-15T14:11:38;5.40;;;1.40;;
23228;SDS011;11783;50.350;6.576;2024-02-15T14:14:04;6.82;;;1.40;;
23228;SDS011;11783;50.350;6.576;2024-02-15T14:16:30;5.00;;;1.65;;
23228;SDS011;11783;50.350;6.576;2024-02-15T14:18:56;5.97;;;1.23;;
23228;SDS011;11783;50.350;6.576;2024-02-15T14:21:22;3.78;;;1.30;;
23228;SDS011;11783;50.350;6.576;2024-02-15T14:23:48;7.22;;;1.20;;
23228;SDS011;11783;50.350;6.576;2024-02-15T14:26:16;4.57;;;1.23;;
23228;SDS011;11783;50.350;6.576;2024-02-15T14:28:42;4.95;;;1.42;;
23228;SDS011;11783;50.350;6.576;2024-02-15T14:31:10;5.95;;;1.67;;
23228;SDS011;11783;50.350;6.576;2024-02-15T14:33:54;5.88;;;1.63;;
23228;SDS011;11783;50.350;6.576;2024-02-15T14:36:20;5.55;;;1.33;;
23228;SDS011;11783;50.350;6.576;2024-02-15T14:38:45;5.00;;;1.17;;
23228;SDS011;11783;50.350;6.576;2024-02-15T14:41:11;4.28;;;1.00;;
23228;SDS011;11783;50.350;6.576;2024-02-15T14:43:37;6.30;;;1.50;;
23228;SDS011;11783;50.350;6.576;2024-02-15T14:46:03;5.70;;;1.60;;
23228;SDS011;11783;50.350;6.576;2024-02-15T14:48:32;4.00;;;1.17;;
23228;SDS011;11783;50.350;6.576;2024-02-15T14:50:59;7.45;;;1.30;;
23228;SDS011;11783;50.350;6.576;2024-02-15T14:53:24;4.85;;;1.25;;
23228;SDS011;11783;50.350;6.576;2024-02-15T14:55:49;5.70;;;1.30;;
23228;SDS011;11783;50.350;6.576;2024-02-15T14:58:16;5.55;;;1.38;;
23228;SDS011;11783;50.350;6.576;2024-02-15T15:00:42;5.03;;;1.60;;
23228;SDS011;11783;50.350;6.576;2024-02-15T15:03:09;8.30;;;1.80;;
23228;SDS011;11783;50.350;6.576;2024-02-15T15:05:38;6.13;;;1.73;;
23228;SDS011;11783;50.350;6.576;2024-02-15T15:08:23;6.78;;;1.45;;
23228;SDS011;11783;50.350;6.576;2024-02-15T15:11:08;5.38;;;1.85;;
23228;SDS011;11783;50.350;6.576;2024-02-15T15:13:52;5.60;;;1.70;;